createdAt,value
2023-02-17T00:03:40.895Z,29.85
2023-02-17T00:09:43.316Z,30.40
2023-02-17T00:15:48.640Z,30.40
2023-02-17T00:21:53.073Z,27.95
2023-02-17T00:27:55.294Z,29.95
2023-02-17T00:33:57.740Z,29.17
2023-02-17T00:40:01.737Z,29.75
2023-02-17T00:46:04.920Z,29.98
2023-02-17T00:52:08.210Z,29.85
2023-02-17T00:58:12.819Z,30.50
2023-02-17T01:04:15.160Z,30.13
2023-02-17T01:10:17.665Z,30.08
2023-02-17T01:16:28.223Z,29.98
2023-02-17T01:22:30.593Z,31.30
2023-02-17T01:28:34.358Z,32.22
2023-02-17T01:34:42.356Z,32.70
2023-02-17T01:40:51.222Z,32.83
2023-02-17T01:46:56.820Z,32.47
2023-02-17T01:53:01.549Z,31.63
2023-02-17T01:59:07.842Z,32.38
2023-02-17T02:05:11.446Z,30.27
2023-02-17T02:11:13.590Z,32.63
2023-02-17T02:17:29.349Z,30.35
2023-02-17T02:24:08.058Z,30.90
2023-02-17T02:30:23.756Z,32.22
2023-02-17T02:36:31.132Z,29.92
2023-02-17T02:42:35.294Z,31.60
2023-02-17T02:48:38.370Z,32.55
2023-02-17T02:54:47.305Z,31.40
2023-02-17T03:01:15.875Z,32.15
2023-02-17T03:07:59.717Z,31.13
2023-02-17T03:14:03.704Z,32.42
2023-02-17T03:20:07.050Z,32.28
2023-02-17T03:26:09.304Z,32.58
2023-02-17T03:32:11.737Z,33.67
2023-02-17T03:38:13.827Z,32.30
2023-02-17T03:44:15.926Z,33.83
2023-02-17T03:50:18.485Z,33.92
2023-02-17T03:56:21.603Z,33.17
2023-02-17T04:02:24.200Z,32.55
2023-02-17T04:08:27.298Z,30.90
2023-02-17T04:14:29.384Z,32.05
2023-02-17T04:20:31.527Z,30.35
2023-02-17T04:26:34.335Z,30.83
2023-02-17T04:32:37.290Z,30.00
2023-02-17T04:38:40.384Z,30.67
2023-02-17T04:44:44.988Z,31.75
2023-02-17T04:50:49.983Z,29.73
2023-02-17T04:56:51.885Z,31.13
2023-02-17T05:02:53.686Z,30.85
2023-02-17T05:08:55.503Z,29.48
2023-02-17T05:14:57.750Z,29.08
2023-02-17T05:20:59.790Z,30.70
2023-02-17T05:27:02.629Z,29.45
2023-02-17T05:33:04.817Z,27.13
2023-02-17T05:39:07.076Z,26.55
2023-02-17T05:45:09.520Z,26.83
2023-02-17T05:51:13.882Z,25.77
2023-02-17T05:57:15.882Z,25.77
2023-02-17T06:03:17.851Z,25.38
2023-02-17T06:09:20.155Z,25.45
2023-02-17T06:15:21.983Z,25.00
2023-02-17T06:21:23.760Z,25.02
2023-02-17T06:27:25.624Z,24.90
2023-02-17T06:33:27.458Z,24.92
2023-02-17T06:39:29.221Z,23.63
2023-02-17T06:45:31.028Z,23.85
2023-02-17T06:51:32.926Z,23.35
2023-02-17T06:57:34.671Z,23.95
2023-02-17T07:03:36.670Z,21.85
2023-02-17T07:09:39.292Z,22.67
2023-02-17T07:15:41.025Z,20.83
2023-02-17T07:21:43.744Z,21.23
2023-02-17T07:27:45.506Z,20.08
2023-02-17T07:33:48.632Z,18.95
2023-02-17T07:39:52.315Z,19.10
2023-02-17T07:45:54.945Z,18.48
2023-02-17T07:51:57.052Z,17.15
2023-02-17T07:57:59.937Z,17.92
2023-02-17T08:04:01.803Z,17.55
2023-02-17T08:10:22.111Z,17.33
2023-02-17T08:16:26.792Z,16.23
2023-02-17T08:22:28.645Z,15.60
2023-02-17T08:28:30.380Z,14.80
2023-02-17T08:34:34.824Z,15.18
2023-02-17T08:40:36.592Z,14.93
2023-02-17T08:46:39.035Z,13.43
2023-02-17T08:52:40.823Z,13.10
2023-02-17T08:58:42.567Z,12.48
2023-02-17T09:04:44.670Z,12.32
2023-02-17T09:10:46.515Z,12.63
2023-02-17T09:16:48.343Z,12.43
2023-02-17T09:22:51.495Z,11.88
2023-02-17T09:28:53.809Z,11.45
2023-02-17T09:34:55.572Z,10.63
2023-02-17T09:41:26.093Z,9.82
2023-02-17T09:47:35.242Z,10.27
2023-02-17T09:53:46.672Z,9.15
2023-02-17T10:00:04.049Z,9.10
2023-02-17T10:06:24.298Z,8.85
2023-02-17T10:12:33.564Z,8.48
2023-02-17T10:18:41.457Z,8.27
2023-02-17T10:31:05.464Z,7.72
2023-02-17T10:37:24.623Z,7.25
2023-02-17T10:43:32.390Z,6.38
2023-02-17T10:49:39.758Z,6.40
2023-02-17T10:55:53.600Z,6.22
2023-02-17T11:02:35.287Z,5.63
2023-02-17T11:08:45.769Z,5.07
2023-02-17T11:14:50.221Z,4.68
2023-02-17T11:21:07.354Z,5.22
2023-02-17T11:27:11.588Z,3.87
2023-02-17T11:33:15.083Z,4.15
2023-02-17T11:39:21.620Z,3.80
2023-02-17T11:45:24.283Z,3.42
2023-02-17T11:51:41.557Z,3.20
2023-02-17T11:57:46.345Z,3.03
2023-02-17T12:04:05.937Z,3.28
2023-02-17T12:10:28.663Z,3.10
2023-02-17T12:17:00.892Z,3.30
2023-02-17T12:23:22.988Z,3.67
2023-02-17T12:29:30.228Z,3.38
2023-02-17T12:35:38.197Z,3.90
2023-02-17T12:42:07.149Z,3.88
2023-02-17T12:48:21.595Z,3.80
2023-02-17T12:54:39.411Z,4.57
2023-02-17T13:00:48.447Z,4.63
2023-02-17T13:07:01.749Z,4.57
2023-02-17T13:13:26.632Z,4.88
2023-02-17T13:19:35.428Z,4.60
2023-02-17T13:25:38.099Z,4.78
2023-02-17T13:32:08.149Z,4.10
2023-02-17T13:38:10.657Z,4.70
2023-02-17T13:44:20.481Z,4.07
2023-02-17T13:50:57.235Z,3.95
2023-02-17T13:56:58.984Z,3.92
2023-02-17T14:03:21.289Z,3.72
2023-02-17T14:09:30.643Z,3.28
2023-02-17T14:15:32.542Z,3.33
2023-02-17T14:21:36.136Z,3.67
2023-02-17T14:27:45.980Z,3.70
2023-02-17T14:33:59.822Z,4.90
2023-02-17T14:40:02.200Z,5.10
2023-02-17T14:46:04.385Z,5.60
2023-02-17T14:52:32.496Z,5.57
2023-02-17T14:58:35.059Z,5.20
2023-02-17T15:04:38.300Z,5.10
2023-02-17T15:10:41.011Z,6.03
2023-02-17T15:16:43.563Z,5.93
2023-02-17T15:22:46.070Z,5.90
2023-02-17T15:28:48.004Z,7.13
2023-02-17T15:34:49.753Z,6.65
2023-02-17T15:40:51.763Z,7.30
2023-02-17T15:46:55.560Z,7.18
2023-02-17T15:52:57.664Z,7.78
2023-02-17T15:59:04.570Z,8.80
2023-02-17T16:05:06.597Z,9.30
2023-02-17T16:11:15.030Z,7.90
2023-02-17T16:17:16.987Z,7.97
2023-02-17T16:23:19.039Z,7.25
2023-02-17T16:29:21.924Z,6.00
2023-02-17T16:35:26.272Z,6.18
2023-02-17T16:41:28.039Z,6.32
2023-02-17T16:47:30.479Z,5.32
2023-02-17T16:53:32.214Z,4.43
2023-02-17T16:59:33.921Z,4.40
2023-02-17T17:05:36.602Z,4.75
2023-02-17T17:11:38.380Z,5.53
2023-02-17T17:17:44.684Z,4.70
2023-02-17T17:23:46.749Z,5.32
2023-02-17T17:29:48.574Z,4.82
2023-02-17T17:35:50.383Z,5.70
2023-02-17T17:41:52.397Z,6.20
2023-02-17T17:47:54.300Z,6.32
2023-02-17T17:53:56.677Z,7.07
2023-02-17T17:59:58.410Z,7.80
2023-02-17T18:06:00.921Z,6.97
2023-02-17T18:12:11.160Z,7.50
2023-02-17T18:18:13.532Z,7.07
2023-02-17T18:24:15.461Z,7.43
2023-02-17T18:30:21.731Z,8.07
2023-02-17T18:36:26.471Z,8.02
2023-02-17T18:42:28.222Z,8.35
2023-02-17T18:48:30.135Z,7.28
2023-02-17T18:54:31.988Z,7.70
2023-02-17T19:00:33.868Z,7.30
2023-02-17T19:06:35.869Z,7.20
2023-02-17T19:12:37.974Z,7.32
2023-02-17T19:18:41.434Z,6.80
2023-02-17T19:24:43.327Z,7.38
2023-02-17T19:30:45.112Z,7.45
2023-02-17T19:36:46.914Z,7.28
2023-02-17T19:42:48.665Z,8.30
2023-02-17T19:48:50.386Z,10.90
2023-02-17T19:54:52.142Z,8.20
2023-02-17T20:00:53.909Z,5.82
2023-02-17T20:06:55.771Z,6.30
2023-02-17T20:12:57.621Z,5.18
2023-02-17T20:19:01.601Z,4.93
2023-02-17T20:25:03.476Z,4.82
2023-02-17T20:31:06.623Z,5.40
2023-02-17T20:37:09.553Z,5.57
2023-02-17T20:43:15.296Z,3.35
2023-02-17T20:49:17.058Z,3.35
2023-02-17T20:55:19.702Z,2.60
2023-02-17T21:01:21.488Z,1.90
2023-02-17T21:07:23.337Z,2.15
2023-02-17T21:13:25.102Z,1.90
2023-02-17T21:19:29.356Z,1.73
2023-02-17T21:25:31.140Z,1.77
2023-02-17T21:31:33.388Z,2.05
2023-02-17T21:37:35.274Z,1.60
2023-02-17T21:43:57.286Z,2.28
2023-02-17T21:49:59.499Z,2.20
2023-02-17T21:56:01.516Z,1.98
2023-02-17T22:02:03.302Z,2.00
2023-02-17T22:08:05.094Z,1.90
2023-02-17T22:14:11.092Z,2.35
2023-02-17T22:20:15.095Z,2.00
2023-02-17T22:26:22.384Z,2.33
2023-02-17T22:32:24.387Z,2.13
2023-02-17T22:38:26.380Z,2.55
2023-02-17T22:44:28.211Z,2.75
2023-02-17T22:50:30.001Z,2.20
2023-02-17T22:56:32.529Z,2.30
2023-02-17T23:02:35.429Z,2.13
2023-02-17T23:08:37.753Z,2.78
2023-02-17T23:14:40.188Z,1.50
2023-02-17T23:20:44.439Z,2.10
2023-02-17T23:26:47.521Z,2.05
2023-02-17T23:32:49.581Z,2.40
2023-02-17T23:38:51.423Z,1.90
2023-02-17T23:44:53.777Z,2.20
2023-02-17T23:51:00.774Z,2.63
2023-02-17T23:57:03.559Z,2.17
